Search METAR Data

METAR Data for ENLK:

ENLK 220420Z 03002KT CAVOK 05/01 Q1022